sensor_id;sensor_type;location;lat;lon;timestamp;temperature;humidity
33717;DHT22;20046;50.746;7.072;2022-08-01T00:00:42;21.80;97.20
33717;DHT22;20046;50.746;7.072;2022-08-01T00:03:08;21.80;97.30
33717;DHT22;20046;50.746;7.072;2022-08-01T00:05:33;21.80;97.40
33717;DHT22;20046;50.746;7.072;2022-08-01T00:07:59;21.70;97.50
33717;DHT22;20046;50.746;7.072;2022-08-01T00:10:24;21.70;97.60
33717;DHT22;20046;50.746;7.072;2022-08-01T00:12:50;21.80;97.70
33717;DHT22;20046;50.746;7.072;2022-08-01T00:15:17;21.70;97.80
33717;DHT22;20046;50.746;7.072;2022-08-01T00:17:43;21.70;98.00
33717;DHT22;20046;50.746;7.072;2022-08-01T00:20:11;21.70;98.00
33717;DHT22;20046;50.746;7.072;2022-08-01T00:22:37;21.70;98.30
33717;DHT22;20046;50.746;7.072;2022-08-01T00:25:03;21.70;98.20
33717;DHT22;20046;50.746;7.072;2022-08-01T00:27:29;21.70;98.30
33717;DHT22;20046;50.746;7.072;2022-08-01T00:29:55;21.70;98.40
33717;DHT22;20046;50.746;7.072;2022-08-01T00:32:20;21.70;98.40
33717;DHT22;20046;50.746;7.072;2022-08-01T00:34:46;21.70;98.50
33717;DHT22;20046;50.746;7.072;2022-08-01T00:37:11;21.70;98.60
33717;DHT22;20046;50.746;7.072;2022-08-01T00:39:37;21.70;98.70
33717;DHT22;20046;50.746;7.072;2022-08-01T00:42:07;21.60;98.80
33717;DHT22;20046;50.746;7.072;2022-08-01T00:44:34;21.60;98.90
33717;DHT22;20046;50.746;7.072;2022-08-01T00:47:00;21.60;99.00
33717;DHT22;20046;50.746;7.072;2022-08-01T00:49:27;21.60;99.20
33717;DHT22;20046;50.746;7.072;2022-08-01T00:51:52;21.60;99.30
33717;DHT22;20046;50.746;7.072;2022-08-01T00:54:18;21.60;99.50
33717;DHT22;20046;50.746;7.072;2022-08-01T00:56:44;21.60;99.50
33717;DHT22;20046;50.746;7.072;2022-08-01T00:59:11;21.60;99.60
33717;DHT22;20046;50.746;7.072;2022-08-01T01:01:37;21.60;99.70
33717;DHT22;20046;50.746;7.072;2022-08-01T01:04:03;21.60;99.90
33717;DHT22;20046;50.746;7.072;2022-08-01T01:09:39;21.50;99.90
33717;DHT22;20046;50.746;7.072;2022-08-01T01:15:02;21.50;99.90
33717;DHT22;20046;50.746;7.072;2022-08-01T01:17:52;21.50;99.90
33717;DHT22;20046;50.746;7.072;2022-08-01T01:20:23;21.50;99.90
33717;DHT22;20046;50.746;7.072;2022-08-01T01:28:02;21.40;99.90
33717;DHT22;20046;50.746;7.072;2022-08-01T01:30:31;21.40;99.90
33717;DHT22;20046;50.746;7.072;2022-08-01T01:33:01;21.40;99.90
33717;DHT22;20046;50.746;7.072;2022-08-01T01:35:31;21.40;99.90
33717;DHT22;20046;50.746;7.072;2022-08-01T01:38:03;21.40;99.90
33717;DHT22;20046;50.746;7.072;2022-08-01T01:40:30;21.40;99.90
33717;DHT22;20046;50.746;7.072;2022-08-01T01:42:57;21.30;99.90
33717;DHT22;20046;50.746;7.072;2022-08-01T01:45:24;21.30;99.90
33717;DHT22;20046;50.746;7.072;2022-08-01T01:47:50;21.30;99.90
33717;DHT22;20046;50.746;7.072;2022-08-01T01:50:19;21.20;99.90
33717;DHT22;20046;50.746;7.072;2022-08-01T01:52:46;21.20;99.90
33717;DHT22;20046;50.746;7.072;2022-08-01T01:55:13;21.20;99.90
33717;DHT22;20046;50.746;7.072;2022-08-01T01:57:42;21.20;99.90
33717;DHT22;20046;50.746;7.072;2022-08-01T02:00:12;21.20;99.90
33717;DHT22;20046;50.746;7.072;2022-08-01T02:02:41;21.10;99.90
33717;DHT22;20046;50.746;7.072;2022-08-01T02:05:09;21.10;99.90
33717;DHT22;20046;50.746;7.072;2022-08-01T02:07:37;21.10;99.90
33717;DHT22;20046;50.746;7.072;2022-08-01T02:10:05;21.10;99.90
33717;DHT22;20046;50.746;7.072;2022-08-01T02:12:35;21.00;99.90
33717;DHT22;20046;50.746;7.072;2022-08-01T02:15:02;21.00;99.90
33717;DHT22;20046;50.746;7.072;2022-08-01T02:17:30;21.00;99.90
33717;DHT22;20046;50.746;7.072;2022-08-01T02:19:57;21.00;99.90
33717;DHT22;20046;50.746;7.072;2022-08-01T02:22:40;20.90;99.90
33717;DHT22;20046;50.746;7.072;2022-08-01T02:25:10;20.90;99.90
33717;DHT22;20046;50.746;7.072;2022-08-01T02:30:07;20.90;99.90
33717;DHT22;20046;50.746;7.072;2022-08-01T02:32:43;20.90;99.90
33717;DHT22;20046;50.746;7.072;2022-08-01T02:35:13;20.80;99.90
33717;DHT22;20046;50.746;7.072;2022-08-01T02:37:41;20.80;99.90
33717;DHT22;20046;50.746;7.072;2022-08-01T02:40:08;20.80;99.90
33717;DHT22;20046;50.746;7.072;2022-08-01T02:42:37;20.80;99.90
33717;DHT22;20046;50.746;7.072;2022-08-01T02:45:04;20.80;99.90
33717;DHT22;20046;50.746;7.072;2022-08-01T02:47:34;20.80;99.90
33717;DHT22;20046;50.746;7.072;2022-08-01T02:50:02;20.80;99.90
33717;DHT22;20046;50.746;7.072;2022-08-01T02:52:28;20.70;99.90
33717;DHT22;20046;50.746;7.072;2022-08-01T02:54:56;20.70;99.90
33717;DHT22;20046;50.746;7.072;2022-08-01T02:57:23;20.70;99.90
33717;DHT22;20046;50.746;7.072;2022-08-01T02:59:50;20.70;99.90
33717;DHT22;20046;50.746;7.072;2022-08-01T03:02:17;20.70;99.90
33717;DHT22;20046;50.746;7.072;2022-08-01T03:04:44;20.70;99.90
33717;DHT22;20046;50.746;7.072;2022-08-01T03:07:11;20.60;99.90
33717;DHT22;20046;50.746;7.072;2022-08-01T03:09:40;20.60;99.90
33717;DHT22;20046;50.746;7.072;2022-08-01T03:12:13;20.60;99.90
33717;DHT22;20046;50.746;7.072;2022-08-01T03:14:40;20.60;99.90
33717;DHT22;20046;50.746;7.072;2022-08-01T03:17:08;20.60;99.90
33717;DHT22;20046;50.746;7.072;2022-08-01T03:19:35;20.60;99.90
33717;DHT22;20046;50.746;7.072;2022-08-01T03:22:03;20.60;99.90
33717;DHT22;20046;50.746;7.072;2022-08-01T03:24:32;20.50;99.90
33717;DHT22;20046;50.746;7.072;2022-08-01T03:26:58;20.50;99.90
33717;DHT22;20046;50.746;7.072;2022-08-01T03:29:27;20.50;99.90
33717;DHT22;20046;50.746;7.072;2022-08-01T03:31:53;20.50;99.90
33717;DHT22;20046;50.746;7.072;2022-08-01T03:34:19;20.50;99.90
33717;DHT22;20046;50.746;7.072;2022-08-01T03:37:24;20.50;99.90
33717;DHT22;20046;50.746;7.072;2022-08-01T03:39:55;20.50;99.90
33717;DHT22;20046;50.746;7.072;2022-08-01T03:42:27;20.50;99.90
33717;DHT22;20046;50.746;7.072;2022-08-01T03:44:58;20.50;99.90
33717;DHT22;20046;50.746;7.072;2022-08-01T03:47:32;20.50;99.90
33717;DHT22;20046;50.746;7.072;2022-08-01T03:50:00;20.50;99.90
33717;DHT22;20046;50.746;7.072;2022-08-01T03:52:27;20.40;99.90
33717;DHT22;20046;50.746;7.072;2022-08-01T03:54:55;20.50;99.90
33717;DHT22;20046;50.746;7.072;2022-08-01T03:57:23;20.50;99.90
33717;DHT22;20046;50.746;7.072;2022-08-01T03:59:49;20.40;99.90
33717;DHT22;20046;50.746;7.072;2022-08-01T04:02:15;20.40;99.90
33717;DHT22;20046;50.746;7.072;2022-08-01T04:04:42;20.50;99.90
33717;DHT22;20046;50.746;7.072;2022-08-01T04:07:32;20.50;99.90
33717;DHT22;20046;50.746;7.072;2022-08-01T04:10:00;20.40;99.90
33717;DHT22;20046;50.746;7.072;2022-08-01T04:12:26;20.40;99.90
33717;DHT22;20046;50.746;7.072;2022-08-01T04:14:52;20.40;99.90
33717;DHT22;20046;50.746;7.072;2022-08-01T04:17:18;20.40;99.90
33717;DHT22;20046;50.746;7.072;2022-08-01T04:19:44;20.40;99.90
33717;DHT22;20046;50.746;7.072;2022-08-01T04:22:11;20.40;99.90
33717;DHT22;20046;50.746;7.072;2022-08-01T04:24:39;20.40;99.90
33717;DHT22;20046;50.746;7.072;2022-08-01T04:27:09;20.40;99.90
33717;DHT22;20046;50.746;7.072;2022-08-01T04:29:37;20.40;99.90
33717;DHT22;20046;50.746;7.072;2022-08-01T04:32:06;20.40;99.90
33717;DHT22;20046;50.746;7.072;2022-08-01T04:34:33;20.40;99.90
33717;DHT22;20046;50.746;7.072;2022-08-01T04:36:59;20.40;99.90
33717;DHT22;20046;50.746;7.072;2022-08-01T04:39:28;20.40;99.90
33717;DHT22;20046;50.746;7.072;2022-08-01T04:41:58;20.40;99.90
33717;DHT22;20046;50.746;7.072;2022-08-01T04:44:24;20.40;99.90
33717;DHT22;20046;50.746;7.072;2022-08-01T04:46:53;20.40;99.90
33717;DHT22;20046;50.746;7.072;2022-08-01T04:49:20;20.50;99.90
33717;DHT22;20046;50.746;7.072;2022-08-01T04:51:54;20.50;99.90
33717;DHT22;20046;50.746;7.072;2022-08-01T04:54:33;20.50;99.90
33717;DHT22;20046;50.746;7.072;2022-08-01T04:56:59;20.50;99.90
33717;DHT22;20046;50.746;7.072;2022-08-01T04:59:33;20.50;99.90
33717;DHT22;20046;50.746;7.072;2022-08-01T05:02:11;20.50;99.90
33717;DHT22;20046;50.746;7.072;2022-08-01T05:04:38;20.50;99.90
33717;DHT22;20046;50.746;7.072;2022-08-01T05:07:04;20.50;99.90
33717;DHT22;20046;50.746;7.072;2022-08-01T05:09:30;20.60;99.90
33717;DHT22;20046;50.746;7.072;2022-08-01T05:11:59;20.60;99.90
33717;DHT22;20046;50.746;7.072;2022-08-01T05:14:27;20.60;99.90
33717;DHT22;20046;50.746;7.072;2022-08-01T05:16:53;20.70;99.90
33717;DHT22;20046;50.746;7.072;2022-08-01T05:19:19;20.80;99.90
33717;DHT22;20046;50.746;7.072;2022-08-01T05:21:45;20.80;99.90
33717;DHT22;20046;50.746;7.072;2022-08-01T05:24:11;20.80;99.90
33717;DHT22;20046;50.746;7.072;2022-08-01T05:26:38;20.80;99.90
33717;DHT22;20046;50.746;7.072;2022-08-01T05:29:04;20.80;99.90
33717;DHT22;20046;50.746;7.072;2022-08-01T05:31:29;20.80;99.90
33717;DHT22;20046;50.746;7.072;2022-08-01T05:33:55;20.80;99.90
33717;DHT22;20046;50.746;7.072;2022-08-01T05:36:21;20.80;99.90
33717;DHT22;20046;50.746;7.072;2022-08-01T05:38:46;20.80;99.90
33717;DHT22;20046;50.746;7.072;2022-08-01T05:41:12;20.80;99.90
33717;DHT22;20046;50.746;7.072;2022-08-01T05:43:38;20.80;99.90
33717;DHT22;20046;50.746;7.072;2022-08-01T05:46:03;20.80;99.90
33717;DHT22;20046;50.746;7.072;2022-08-01T05:48:29;20.80;99.90
33717;DHT22;20046;50.746;7.072;2022-08-01T05:50:55;20.80;99.90
33717;DHT22;20046;50.746;7.072;2022-08-01T05:53:21;20.90;99.90
33717;DHT22;20046;50.746;7.072;2022-08-01T05:55:47;20.90;99.90
33717;DHT22;20046;50.746;7.072;2022-08-01T05:58:12;20.90;99.90
33717;DHT22;20046;50.746;7.072;2022-08-01T06:00:38;20.90;99.90
33717;DHT22;20046;50.746;7.072;2022-08-01T06:03:04;20.90;99.90
33717;DHT22;20046;50.746;7.072;2022-08-01T06:05:30;20.90;99.90
33717;DHT22;20046;50.746;7.072;2022-08-01T06:07:55;20.90;99.90
33717;DHT22;20046;50.746;7.072;2022-08-01T06:10:21;20.90;99.90
33717;DHT22;20046;50.746;7.072;2022-08-01T06:12:47;20.90;99.90
33717;DHT22;20046;50.746;7.072;2022-08-01T06:15:12;20.90;99.90
33717;DHT22;20046;50.746;7.072;2022-08-01T06:17:38;20.90;99.90
33717;DHT22;20046;50.746;7.072;2022-08-01T06:20:05;20.90;99.90
33717;DHT22;20046;50.746;7.072;2022-08-01T06:22:32;21.00;99.90
33717;DHT22;20046;50.746;7.072;2022-08-01T06:24:57;21.00;99.90
33717;DHT22;20046;50.746;7.072;2022-08-01T06:27:23;21.10;99.90
33717;DHT22;20046;50.746;7.072;2022-08-01T06:29:50;21.20;99.90
33717;DHT22;20046;50.746;7.072;2022-08-01T06:32:19;21.30;99.90
33717;DHT22;20046;50.746;7.072;2022-08-01T06:34:44;21.30;99.90
33717;DHT22;20046;50.746;7.072;2022-08-01T06:37:10;21.40;99.90
33717;DHT22;20046;50.746;7.072;2022-08-01T06:39:38;21.40;99.90
33717;DHT22;20046;50.746;7.072;2022-08-01T06:42:04;21.50;99.90
33717;DHT22;20046;50.746;7.072;2022-08-01T06:44:29;21.50;99.90
33717;DHT22;20046;50.746;7.072;2022-08-01T06:46:55;21.60;99.90
33717;DHT22;20046;50.746;7.072;2022-08-01T06:49:24;21.60;99.90
33717;DHT22;20046;50.746;7.072;2022-08-01T06:51:49;21.60;99.90
33717;DHT22;20046;50.746;7.072;2022-08-01T06:54:15;21.50;99.90
33717;DHT22;20046;50.746;7.072;2022-08-01T06:56:42;21.50;99.90
33717;DHT22;20046;50.746;7.072;2022-08-01T06:59:07;21.60;99.90
33717;DHT22;20046;50.746;7.072;2022-08-01T07:01:33;21.70;99.90
33717;DHT22;20046;50.746;7.072;2022-08-01T07:03:59;21.80;99.90
33717;DHT22;20046;50.746;7.072;2022-08-01T07:06:25;21.80;99.90
33717;DHT22;20046;50.746;7.072;2022-08-01T07:08:55;21.90;99.90
33717;DHT22;20046;50.746;7.072;2022-08-01T07:11:21;21.90;99.90
33717;DHT22;20046;50.746;7.072;2022-08-01T07:13:47;21.90;99.90
33717;DHT22;20046;50.746;7.072;2022-08-01T07:16:17;21.80;99.90
33717;DHT22;20046;50.746;7.072;2022-08-01T07:18:43;21.80;99.90
33717;DHT22;20046;50.746;7.072;2022-08-01T07:21:08;21.90;99.90
33717;DHT22;20046;50.746;7.072;2022-08-01T07:23:34;22.00;99.90
33717;DHT22;20046;50.746;7.072;2022-08-01T07:26:00;22.00;99.90
33717;DHT22;20046;50.746;7.072;2022-08-01T07:28:29;22.00;99.90
33717;DHT22;20046;50.746;7.072;2022-08-01T07:30:55;22.00;99.90
33717;DHT22;20046;50.746;7.072;2022-08-01T07:33:21;22.10;99.90
33717;DHT22;20046;50.746;7.072;2022-08-01T07:35:47;22.20;99.90
33717;DHT22;20046;50.746;7.072;2022-08-01T07:38:13;22.30;99.90
33717;DHT22;20046;50.746;7.072;2022-08-01T07:40:40;22.50;99.90
33717;DHT22;20046;50.746;7.072;2022-08-01T07:43:06;22.70;99.90
33717;DHT22;20046;50.746;7.072;2022-08-01T07:45:32;22.80;99.90
33717;DHT22;20046;50.746;7.072;2022-08-01T07:48:05;22.80;99.90
33717;DHT22;20046;50.746;7.072;2022-08-01T07:50:31;22.90;99.90
33717;DHT22;20046;50.746;7.072;2022-08-01T07:52:57;23.00;99.90
33717;DHT22;20046;50.746;7.072;2022-08-01T07:55:22;23.20;99.90
33717;DHT22;20046;50.746;7.072;2022-08-01T07:57:48;23.30;99.90
33717;DHT22;20046;50.746;7.072;2022-08-01T08:00:14;23.40;99.90
33717;DHT22;20046;50.746;7.072;2022-08-01T08:02:39;23.30;99.90
33717;DHT22;20046;50.746;7.072;2022-08-01T08:05:05;23.20;99.90
33717;DHT22;20046;50.746;7.072;2022-08-01T08:07:33;23.00;99.90
33717;DHT22;20046;50.746;7.072;2022-08-01T08:09:59;22.90;99.90
33717;DHT22;20046;50.746;7.072;2022-08-01T08:12:25;22.80;99.90
33717;DHT22;20046;50.746;7.072;2022-08-01T08:14:51;22.70;99.90
33717;DHT22;20046;50.746;7.072;2022-08-01T08:17:16;22.70;99.90
33717;DHT22;20046;50.746;7.072;2022-08-01T08:19:42;22.70;99.90
33717;DHT22;20046;50.746;7.072;2022-08-01T08:22:08;22.90;99.90
33717;DHT22;20046;50.746;7.072;2022-08-01T08:24:34;23.10;99.90
33717;DHT22;20046;50.746;7.072;2022-08-01T08:27:01;23.40;99.90
33717;DHT22;20046;50.746;7.072;2022-08-01T08:29:28;23.60;99.90
33717;DHT22;20046;50.746;7.072;2022-08-01T08:31:55;23.70;99.90
33717;DHT22;20046;50.746;7.072;2022-08-01T08:34:21;23.80;99.90
33717;DHT22;20046;50.746;7.072;2022-08-01T08:36:50;24.00;99.90
33717;DHT22;20046;50.746;7.072;2022-08-01T08:39:17;24.40;99.90
33717;DHT22;20046;50.746;7.072;2022-08-01T08:41:43;24.70;99.90
33717;DHT22;20046;50.746;7.072;2022-08-01T08:44:10;24.60;99.90
33717;DHT22;20046;50.746;7.072;2022-08-01T08:46:42;24.60;99.90
33717;DHT22;20046;50.746;7.072;2022-08-01T08:49:09;24.50;99.90
33717;DHT22;20046;50.746;7.072;2022-08-01T08:51:39;24.40;99.90
33717;DHT22;20046;50.746;7.072;2022-08-01T08:54:06;24.30;99.90
33717;DHT22;20046;50.746;7.072;2022-08-01T08:56:35;24.30;99.90
33717;DHT22;20046;50.746;7.072;2022-08-01T08:59:02;24.20;99.90
33717;DHT22;20046;50.746;7.072;2022-08-01T09:01:28;24.20;99.90
33717;DHT22;20046;50.746;7.072;2022-08-01T09:03:54;24.30;99.90
33717;DHT22;20046;50.746;7.072;2022-08-01T09:06:20;24.30;99.90
33717;DHT22;20046;50.746;7.072;2022-08-01T09:08:46;24.40;99.90
33717;DHT22;20046;50.746;7.072;2022-08-01T09:11:12;24.40;99.90
33717;DHT22;20046;50.746;7.072;2022-08-01T09:13:37;24.60;99.90
33717;DHT22;20046;50.746;7.072;2022-08-01T09:16:08;24.80;99.90
33717;DHT22;20046;50.746;7.072;2022-08-01T09:18:42;24.90;99.90
33717;DHT22;20046;50.746;7.072;2022-08-01T09:21:19;24.70;99.90
33717;DHT22;20046;50.746;7.072;2022-08-01T09:23:47;24.60;99.90
33717;DHT22;20046;50.746;7.072;2022-08-01T09:26:17;24.60;99.90
33717;DHT22;20046;50.746;7.072;2022-08-01T09:28:43;24.90;99.90
33717;DHT22;20046;50.746;7.072;2022-08-01T09:31:17;25.40;99.90
33717;DHT22;20046;50.746;7.072;2022-08-01T09:33:54;26.30;99.90
33717;DHT22;20046;50.746;7.072;2022-08-01T09:36:23;27.50;99.90
33717;DHT22;20046;50.746;7.072;2022-08-01T09:38:49;28.50;99.90
33717;DHT22;20046;50.746;7.072;2022-08-01T09:41:15;29.00;98.30
33717;DHT22;20046;50.746;7.072;2022-08-01T09:43:48;28.80;97.20
33717;DHT22;20046;50.746;7.072;2022-08-01T09:46:15;28.30;96.90
33717;DHT22;20046;50.746;7.072;2022-08-01T09:48:56;27.60;97.40
33717;DHT22;20046;50.746;7.072;2022-08-01T09:51:49;27.30;97.80
33717;DHT22;20046;50.746;7.072;2022-08-01T09:54:31;27.70;97.50
33717;DHT22;20046;50.746;7.072;2022-08-01T09:57:14;27.90;97.00
33717;DHT22;20046;50.746;7.072;2022-08-01T09:59:43;27.80;96.60
33717;DHT22;20046;50.746;7.072;2022-08-01T10:02:13;27.80;96.30
33717;DHT22;20046;50.746;7.072;2022-08-01T10:04:50;27.70;95.80
33717;DHT22;20046;50.746;7.072;2022-08-01T10:07:17;27.70;96.00
33717;DHT22;20046;50.746;7.072;2022-08-01T10:09:44;27.50;96.20
33717;DHT22;20046;50.746;7.072;2022-08-01T10:12:12;27.40;96.30
33717;DHT22;20046;50.746;7.072;2022-08-01T10:14:39;27.50;96.00
33717;DHT22;20046;50.746;7.072;2022-08-01T10:17:08;28.00;95.40
33717;DHT22;20046;50.746;7.072;2022-08-01T10:19:35;28.50;94.60
33717;DHT22;20046;50.746;7.072;2022-08-01T10:22:05;29.50;94.10
33717;DHT22;20046;50.746;7.072;2022-08-01T10:24:36;30.60;92.50
33717;DHT22;20046;50.746;7.072;2022-08-01T10:27:05;31.60;90.80
33717;DHT22;20046;50.746;7.072;2022-08-01T10:29:40;31.40;89.50
33717;DHT22;20046;50.746;7.072;2022-08-01T10:32:06;31.70;89.40
33717;DHT22;20046;50.746;7.072;2022-08-01T10:34:35;31.80;88.50
33717;DHT22;20046;50.746;7.072;2022-08-01T10:37:03;31.20;88.60
33717;DHT22;20046;50.746;7.072;2022-08-01T10:39:30;30.00;90.10
33717;DHT22;20046;50.746;7.072;2022-08-01T10:41:56;28.80;91.20
33717;DHT22;20046;50.746;7.072;2022-08-01T10:44:24;27.90;92.10
33717;DHT22;20046;50.746;7.072;2022-08-01T10:46:54;27.40;93.10
33717;DHT22;20046;50.746;7.072;2022-08-01T10:49:22;27.10;93.30
33717;DHT22;20046;50.746;7.072;2022-08-01T10:51:49;27.60;93.30
33717;DHT22;20046;50.746;7.072;2022-08-01T10:54:14;28.60;92.40
33717;DHT22;20046;50.746;7.072;2022-08-01T10:56:45;28.90;91.30
33717;DHT22;20046;50.746;7.072;2022-08-01T10:59:20;29.00;91.20
33717;DHT22;20046;50.746;7.072;2022-08-01T11:01:56;29.90;90.40
33717;DHT22;20046;50.746;7.072;2022-08-01T11:07:17;31.80;85.50
33717;DHT22;20046;50.746;7.072;2022-08-01T11:09:49;32.50;83.20
33717;DHT22;20046;50.746;7.072;2022-08-01T11:12:38;33.00;80.50
33717;DHT22;20046;50.746;7.072;2022-08-01T11:17:36;33.30;78.70
33717;DHT22;20046;50.746;7.072;2022-08-01T11:28:23;30.20;84.00
33717;DHT22;20046;50.746;7.072;2022-08-01T11:38:42;33.00;79.20
33717;DHT22;20046;50.746;7.072;2022-08-01T11:41:14;32.80;78.40
33717;DHT22;20046;50.746;7.072;2022-08-01T11:44:00;32.00;79.30
33717;DHT22;20046;50.746;7.072;2022-08-01T11:55:11;27.70;87.60
33717;DHT22;20046;50.746;7.072;2022-08-01T11:57:37;27.00;89.50
33717;DHT22;20046;50.746;7.072;2022-08-01T12:00:10;26.50;90.40
33717;DHT22;20046;50.746;7.072;2022-08-01T12:02:36;26.30;90.90
33717;DHT22;20046;50.746;7.072;2022-08-01T12:05:13;26.20;91.20
33717;DHT22;20046;50.746;7.072;2022-08-01T12:07:41;26.30;91.30
33717;DHT22;20046;50.746;7.072;2022-08-01T12:10:15;26.50;90.90
33717;DHT22;20046;50.746;7.072;2022-08-01T12:12:49;26.70;90.70
33717;DHT22;20046;50.746;7.072;2022-08-01T12:15:16;27.10;90.90
33717;DHT22;20046;50.746;7.072;2022-08-01T12:17:50;27.40;90.70
33717;DHT22;20046;50.746;7.072;2022-08-01T12:20:20;27.90;90.40
33717;DHT22;20046;50.746;7.072;2022-08-01T12:22:46;28.60;89.40
33717;DHT22;20046;50.746;7.072;2022-08-01T12:25:16;28.80;88.10
33717;DHT22;20046;50.746;7.072;2022-08-01T12:27:44;28.70;88.00
33717;DHT22;20046;50.746;7.072;2022-08-01T12:30:21;28.60;88.80
33717;DHT22;20046;50.746;7.072;2022-08-01T12:32:51;28.40;89.30
33717;DHT22;20046;50.746;7.072;2022-08-01T12:35:23;28.30;88.20
33717;DHT22;20046;50.746;7.072;2022-08-01T12:37:51;28.20;89.10
33717;DHT22;20046;50.746;7.072;2022-08-01T12:40:29;28.10;89.30
33717;DHT22;20046;50.746;7.072;2022-08-01T12:42:57;28.20;89.10
33717;DHT22;20046;50.746;7.072;2022-08-01T12:45:25;28.30;89.20
33717;DHT22;20046;50.746;7.072;2022-08-01T12:47:55;29.30;87.10
33717;DHT22;20046;50.746;7.072;2022-08-01T12:50:24;29.90;85.10
33717;DHT22;20046;50.746;7.072;2022-08-01T12:52:51;29.70;83.60
33717;DHT22;20046;50.746;7.072;2022-08-01T12:55:24;29.30;83.40
33717;DHT22;20046;50.746;7.072;2022-08-01T12:58:04;28.70;84.50
33717;DHT22;20046;50.746;7.072;2022-08-01T13:00:30;28.20;86.00
33717;DHT22;20046;50.746;7.072;2022-08-01T13:03:07;27.90;86.10
33717;DHT22;20046;50.746;7.072;2022-08-01T13:05:50;27.80;85.10
33717;DHT22;20046;50.746;7.072;2022-08-01T13:08:23;28.00;84.80
33717;DHT22;20046;50.746;7.072;2022-08-01T13:10:50;29.10;83.10
33717;DHT22;20046;50.746;7.072;2022-08-01T13:13:34;31.30;79.30
33717;DHT22;20046;50.746;7.072;2022-08-01T13:16:06;31.60;78.00
33717;DHT22;20046;50.746;7.072;2022-08-01T13:18:33;31.00;78.10
33717;DHT22;20046;50.746;7.072;2022-08-01T13:24:22;29.80;80.00
33717;DHT22;20046;50.746;7.072;2022-08-01T13:26:51;29.90;78.00
33717;DHT22;20046;50.746;7.072;2022-08-01T13:29:34;30.70;76.70
33717;DHT22;20046;50.746;7.072;2022-08-01T13:32:16;30.40;75.70
33717;DHT22;20046;50.746;7.072;2022-08-01T13:34:42;30.10;76.80
33717;DHT22;20046;50.746;7.072;2022-08-01T13:37:08;29.60;77.60
33717;DHT22;20046;50.746;7.072;2022-08-01T13:39:34;29.10;79.90
33717;DHT22;20046;50.746;7.072;2022-08-01T13:42:06;28.60;81.30
33717;DHT22;20046;50.746;7.072;2022-08-01T13:44:32;28.10;82.60
33717;DHT22;20046;50.746;7.072;2022-08-01T13:46:57;27.90;83.20
33717;DHT22;20046;50.746;7.072;2022-08-01T13:49:23;28.00;83.40
33717;DHT22;20046;50.746;7.072;2022-08-01T13:51:49;28.10;83.60
33717;DHT22;20046;50.746;7.072;2022-08-01T13:54:16;28.30;83.00
33717;DHT22;20046;50.746;7.072;2022-08-01T13:56:42;28.50;82.90
33717;DHT22;20046;50.746;7.072;2022-08-01T13:59:07;28.50;82.90
33717;DHT22;20046;50.746;7.072;2022-08-01T14:01:34;28.40;82.40
33717;DHT22;20046;50.746;7.072;2022-08-01T14:04:00;28.30;82.70
33717;DHT22;20046;50.746;7.072;2022-08-01T14:06:26;28.20;83.20
33717;DHT22;20046;50.746;7.072;2022-08-01T14:08:52;27.90;83.30
33717;DHT22;20046;50.746;7.072;2022-08-01T14:11:17;27.70;82.90
33717;DHT22;20046;50.746;7.072;2022-08-01T14:13:43;27.50;82.90
33717;DHT22;20046;50.746;7.072;2022-08-01T14:16:09;27.40;82.90
33717;DHT22;20046;50.746;7.072;2022-08-01T14:18:34;27.40;82.60
33717;DHT22;20046;50.746;7.072;2022-08-01T14:21:00;27.30;82.90
33717;DHT22;20046;50.746;7.072;2022-08-01T14:23:26;27.30;82.40
33717;DHT22;20046;50.746;7.072;2022-08-01T14:25:52;27.40;81.90
33717;DHT22;20046;50.746;7.072;2022-08-01T14:28:18;27.40;81.80
33717;DHT22;20046;50.746;7.072;2022-08-01T14:30:44;27.40;81.70
33717;DHT22;20046;50.746;7.072;2022-08-01T14:33:11;27.30;81.20
33717;DHT22;20046;50.746;7.072;2022-08-01T14:35:37;27.20;81.40
33717;DHT22;20046;50.746;7.072;2022-08-01T14:38:03;27.10;81.50
33717;DHT22;20046;50.746;7.072;2022-08-01T14:40:29;26.90;81.10
33717;DHT22;20046;50.746;7.072;2022-08-01T14:42:54;26.80;81.50
33717;DHT22;20046;50.746;7.072;2022-08-01T14:45:20;26.80;81.40
33717;DHT22;20046;50.746;7.072;2022-08-01T14:47:46;26.80;81.70
33717;DHT22;20046;50.746;7.072;2022-08-01T14:50:13;26.80;82.10
33717;DHT22;20046;50.746;7.072;2022-08-01T14:52:40;26.70;81.80
33717;DHT22;20046;50.746;7.072;2022-08-01T14:55:07;26.70;82.20
33717;DHT22;20046;50.746;7.072;2022-08-01T14:57:34;26.80;82.40
33717;DHT22;20046;50.746;7.072;2022-08-01T15:00:00;27.10;82.20
33717;DHT22;20046;50.746;7.072;2022-08-01T15:02:25;27.50;81.30
33717;DHT22;20046;50.746;7.072;2022-08-01T15:04:51;27.80;81.10
33717;DHT22;20046;50.746;7.072;2022-08-01T15:07:17;27.90;80.40
33717;DHT22;20046;50.746;7.072;2022-08-01T15:09:43;28.00;80.70
33717;DHT22;20046;50.746;7.072;2022-08-01T15:12:09;27.90;79.50
33717;DHT22;20046;50.746;7.072;2022-08-01T15:14:35;28.00;79.90
33717;DHT22;20046;50.746;7.072;2022-08-01T15:17:14;28.00;79.90
33717;DHT22;20046;50.746;7.072;2022-08-01T15:19:39;27.90;79.60
33717;DHT22;20046;50.746;7.072;2022-08-01T15:22:05;28.00;79.90
33717;DHT22;20046;50.746;7.072;2022-08-01T15:24:31;28.30;79.40
33717;DHT22;20046;50.746;7.072;2022-08-01T15:26:56;28.60;78.00
33717;DHT22;20046;50.746;7.072;2022-08-01T15:29:22;28.60;77.80
33717;DHT22;20046;50.746;7.072;2022-08-01T15:31:48;28.70;77.80
33717;DHT22;20046;50.746;7.072;2022-08-01T15:34:13;28.70;77.50
33717;DHT22;20046;50.746;7.072;2022-08-01T15:36:39;28.60;77.20
33717;DHT22;20046;50.746;7.072;2022-08-01T15:39:05;28.50;77.50
33717;DHT22;20046;50.746;7.072;2022-08-01T15:41:30;28.20;77.10
33717;DHT22;20046;50.746;7.072;2022-08-01T15:43:56;27.90;76.00
33717;DHT22;20046;50.746;7.072;2022-08-01T15:46:22;27.70;75.70
33717;DHT22;20046;50.746;7.072;2022-08-01T15:48:48;27.40;76.10
33717;DHT22;20046;50.746;7.072;2022-08-01T15:51:14;27.30;76.00
33717;DHT22;20046;50.746;7.072;2022-08-01T15:53:40;27.00;76.00
33717;DHT22;20046;50.746;7.072;2022-08-01T15:56:05;26.90;76.90
33717;DHT22;20046;50.746;7.072;2022-08-01T15:58:31;26.70;77.00
33717;DHT22;20046;50.746;7.072;2022-08-01T16:00:58;26.50;77.10
33717;DHT22;20046;50.746;7.072;2022-08-01T16:03:23;26.40;77.40
33717;DHT22;20046;50.746;7.072;2022-08-01T16:05:49;26.40;77.40
33717;DHT22;20046;50.746;7.072;2022-08-01T16:08:15;26.30;78.20
33717;DHT22;20046;50.746;7.072;2022-08-01T16:10:41;26.30;78.10
33717;DHT22;20046;50.746;7.072;2022-08-01T16:13:07;26.30;78.20
33717;DHT22;20046;50.746;7.072;2022-08-01T16:15:35;26.40;78.70
33717;DHT22;20046;50.746;7.072;2022-08-01T16:18:01;26.40;78.40
33717;DHT22;20046;50.746;7.072;2022-08-01T16:20:26;26.50;78.20
33717;DHT22;20046;50.746;7.072;2022-08-01T16:22:52;26.60;78.90